Sioux Falls, SD

10:34 PM CST on December 19, 2014 (GMT -0600)
Northeast Sioux Falls | Change Station
CLOSE
Current Station
Personal Weather Station
Location: Sioux Falls, SD
Elevation: 1467 ft
Nearby Weather Stations

Elev 1467 ft 43.55 °N, 96.66 °W | Updated 60 seconds ago

Overcast
Overcast
30.4 °F
Feels Like 30 °F
N
0.0
Wind Variable Wind from WSW
Gusts 2.0 mph

Today
High -- | Low -- °F
--% Chance of Precip.
Yesterday
High -- | Low -- °F
Precip. -- in
7:55 AM 4:52 PM
Waning Crescent, 4% visible
Pressure 30.12 in
Visibility 9.0 miles
Clouds Overcast 800 ft
Windchill 30 °F
Dew Point 29 °F
Humidity 94%
Rainfall 0.00 in
Snow Depth Not available.
UV 0 out of 12
Pollen .10 out of 12
Air Quality Not available.
Flu Activity Not available.
METAR KFSD 200356Z 18011KT 9SM OVC008 M01/M02 A3007 RMK AO2 SLP200 T10061022

More Conditions Fewer Conditions

Pressure 30.12 in
Visibility 9.0 miles
Clouds Overcast 800 ft
Windchill 30 °F
Dew Point 29 °F
Humidity 94%
Rainfall 0.00 in
Snow Depth Not available.
UV 0 out of 12
Pollen .10 out of 12
Air Quality Not available.
Flu Activity Not available.
METAR KFSD 200356Z 18011KT 9SM OVC008 M01/M02 A3007 RMK AO2 SLP200 T10061022

More Conditions Fewer Conditions

10-Day Weather Forecast

Almanac

Astronomy

Dec. 19, 2014 Rise Set
Actual Time
Civil Twilight
Nautical Twilight
Astronomical Twilight
Moon
Length of Visible Light
Length of Day
Tomorrow will be .
, % of the Moon is Illuminated

Today's Extremes

State Highs State Lows

Community

WunderPhotos

Upload Photos

1,779,130 photos uploaded!

WunderBlogs® & News

Nearby

Air Quality

  Air Quality AQ Index Pollutant
Not available.

Snow Depth

Station Depth Elevation

Earthquake Activity

City Distance Mag. Time & Date
Minimum magnitude displayed is 2.5.

Coastal Water Temperatures

Place Temperature

Nearby Weather Stations